createdAt,value
2022-08-23T00:00:30.318Z,16.81
2022-08-23T00:01:31.266Z,16.78
2022-08-23T00:02:30.340Z,16.72
2022-08-23T00:03:30.308Z,16.72
2022-08-23T00:04:35.034Z,16.58
2022-08-23T00:05:30.293Z,16.68
2022-08-23T00:06:30.271Z,16.68
2022-08-23T00:07:30.288Z,16.64
2022-08-23T00:08:30.258Z,16.57
2022-08-23T00:09:30.258Z,16.60
2022-08-23T00:10:30.255Z,16.56
2022-08-23T00:11:30.252Z,16.57
2022-08-23T00:12:30.256Z,16.47
2022-08-23T00:13:47.459Z,16.43
2022-08-23T00:14:30.227Z,16.50
2022-08-23T00:15:30.219Z,16.39
2022-08-23T00:16:30.214Z,16.39
2022-08-23T00:17:34.345Z,16.38
2022-08-23T00:18:30.427Z,16.35
2022-08-23T00:19:30.226Z,16.35
2022-08-23T00:20:30.205Z,16.28
2022-08-23T00:21:30.226Z,16.29
2022-08-23T00:22:30.211Z,16.21
2022-08-23T00:23:30.204Z,16.23
2022-08-23T00:24:30.174Z,16.20
2022-08-23T00:25:30.442Z,16.29
2022-08-23T00:26:30.180Z,16.29
2022-08-23T00:27:30.153Z,16.16
2022-08-23T00:28:30.140Z,16.31
2022-08-23T00:29:30.154Z,16.26
2022-08-23T00:30:30.327Z,16.26
2022-08-23T00:31:30.157Z,16.29
2022-08-23T00:32:30.149Z,16.24
2022-08-23T00:33:30.140Z,16.24
2022-08-23T00:34:30.196Z,16.15
2022-08-23T00:35:30.102Z,16.10
2022-08-23T00:36:30.145Z,16.12
2022-08-23T00:37:30.092Z,16.12
2022-08-23T00:38:34.012Z,16.15
2022-08-23T00:39:30.089Z,16.13
2022-08-23T00:40:30.110Z,16.16
2022-08-23T00:41:30.085Z,16.09
2022-08-23T00:42:30.078Z,16.15
2022-08-23T00:43:30.059Z,16.09
2022-08-23T00:44:30.046Z,16.04
2022-08-23T00:45:30.056Z,16.04
2022-08-23T00:46:30.079Z,16.01
2022-08-23T00:47:30.047Z,15.95
2022-08-23T00:48:30.049Z,15.91
2022-08-23T00:49:30.028Z,15.90
2022-08-23T00:50:30.051Z,16.02
2022-08-23T00:51:30.010Z,15.97
2022-08-23T00:52:30.033Z,15.94
2022-08-23T00:53:29.987Z,15.91
2022-08-23T00:54:30.038Z,15.88
2022-08-23T00:55:30.021Z,15.83
2022-08-23T00:56:30.077Z,15.75
2022-08-23T00:57:29.973Z,15.79
2022-08-23T00:58:29.967Z,15.76
2022-08-23T00:59:29.961Z,15.68
2022-08-23T01:00:29.966Z,15.70
2022-08-23T01:01:30.029Z,15.65
2022-08-23T01:02:29.936Z,15.67
2022-08-23T01:03:29.935Z,15.62
2022-08-23T01:04:29.936Z,15.62
2022-08-23T01:05:29.946Z,15.61
2022-08-23T01:06:29.937Z,15.64
2022-08-23T01:07:29.932Z,15.52
2022-08-23T01:08:29.916Z,15.46
2022-08-23T01:09:29.893Z,15.46
2022-08-23T01:10:29.910Z,15.46
2022-08-23T01:11:29.883Z,15.52
2022-08-23T01:12:32.606Z,15.61
2022-08-23T01:13:29.927Z,15.49
2022-08-23T01:14:29.872Z,15.46
2022-08-23T01:15:29.845Z,15.42
2022-08-23T01:16:29.909Z,15.43
2022-08-23T01:17:29.877Z,15.40
2022-08-23T01:18:29.866Z,15.40
2022-08-23T01:19:31.762Z,15.36
2022-08-23T01:20:29.836Z,15.35
2022-08-23T01:21:29.818Z,15.33
2022-08-23T01:22:29.834Z,15.25
2022-08-23T01:23:29.850Z,15.39
2022-08-23T01:25:05.985Z,15.36
2022-08-23T01:25:29.822Z,15.21
2022-08-23T01:26:29.805Z,15.31
2022-08-23T01:27:30.187Z,15.22
2022-08-23T01:28:29.808Z,15.24
2022-08-23T01:29:29.789Z,15.22
2022-08-23T01:30:29.780Z,15.18
2022-08-23T01:31:29.772Z,15.25
2022-08-23T01:32:29.779Z,15.28
2022-08-23T01:33:29.766Z,15.24
2022-08-23T01:34:29.731Z,15.22
2022-08-23T01:35:29.744Z,15.19
2022-08-23T01:36:29.750Z,15.15
2022-08-23T01:37:29.742Z,15.11
2022-08-23T01:38:30.309Z,15.11
2022-08-23T01:39:29.720Z,15.14
2022-08-23T01:40:29.700Z,15.03
2022-08-23T01:41:29.699Z,15.03
2022-08-23T01:42:29.715Z,15.04
2022-08-23T01:43:29.675Z,15.04
2022-08-23T01:44:29.678Z,15.02
2022-08-23T01:45:29.870Z,15.04
2022-08-23T01:46:29.672Z,15.04
2022-08-23T01:47:29.657Z,15.06
2022-08-23T01:48:29.679Z,15.02
2022-08-23T01:49:29.682Z,15.02
2022-08-23T01:50:29.712Z,14.99
2022-08-23T01:51:29.663Z,14.97
2022-08-23T01:52:29.625Z,14.92
2022-08-23T01:53:29.613Z,14.99
2022-08-23T01:54:29.635Z,14.92
2022-08-23T01:55:29.597Z,14.85
2022-08-23T01:56:38.646Z,14.88
2022-08-23T01:57:29.592Z,14.85
2022-08-23T01:58:29.613Z,14.81
2022-08-23T01:59:29.612Z,14.78
2022-08-23T02:00:29.749Z,14.82
2022-08-23T02:01:29.634Z,14.86
2022-08-23T02:02:29.587Z,14.78
2022-08-23T02:03:29.579Z,14.78
2022-08-23T02:04:29.567Z,14.89
2022-08-23T02:05:29.558Z,14.86
2022-08-23T02:06:29.556Z,14.77
2022-08-23T02:07:29.561Z,14.84
2022-08-23T02:08:29.552Z,14.81
2022-08-23T02:09:29.528Z,14.82
2022-08-23T02:10:29.490Z,14.86
2022-08-23T02:11:29.521Z,14.88
2022-08-23T02:12:29.529Z,14.89
2022-08-23T02:13:29.502Z,14.88
2022-08-23T02:14:29.499Z,14.92
2022-08-23T02:15:29.467Z,14.86
2022-08-23T02:16:29.481Z,14.78
2022-08-23T02:17:29.462Z,14.85
2022-08-23T02:18:29.448Z,14.85
2022-08-23T02:19:29.435Z,14.72
2022-08-23T02:20:29.441Z,14.63
2022-08-23T02:21:29.425Z,14.77
2022-08-23T02:22:29.426Z,14.59
2022-08-23T02:23:29.460Z,14.60
2022-08-23T02:24:29.430Z,14.54
2022-08-23T02:25:29.432Z,14.63
2022-08-23T02:26:30.971Z,14.65
2022-08-23T02:27:29.429Z,14.68
2022-08-23T02:28:29.392Z,14.65
2022-08-23T02:29:29.396Z,14.69
2022-08-23T02:30:29.425Z,14.66
2022-08-23T02:31:29.411Z,14.58
2022-08-23T02:32:29.405Z,14.45
2022-08-23T02:33:29.418Z,14.53
2022-08-23T02:34:35.632Z,14.53
2022-08-23T02:35:29.383Z,14.47
2022-08-23T02:36:29.385Z,14.41
2022-08-23T02:37:29.346Z,14.45
2022-08-23T02:38:29.349Z,14.36
2022-08-23T02:39:29.320Z,14.40
2022-08-23T02:40:29.340Z,14.44
2022-08-23T02:41:29.298Z,14.45
2022-08-23T02:42:29.313Z,14.45
2022-08-23T02:43:29.307Z,14.44
2022-08-23T02:44:29.289Z,14.48
2022-08-23T02:45:29.284Z,14.43
2022-08-23T02:49:16.301Z,14.36
2022-08-23T02:50:16.286Z,14.43
2022-08-23T02:51:16.316Z,14.26
2022-08-23T02:52:16.302Z,14.23
2022-08-23T02:53:16.294Z,14.30
2022-08-23T02:54:16.310Z,14.29
2022-08-23T02:55:16.265Z,14.23
2022-08-23T02:56:21.675Z,14.25
2022-08-23T02:57:16.315Z,14.25
2022-08-23T02:58:16.270Z,14.28
2022-08-23T02:59:16.232Z,14.22
2022-08-23T03:00:16.265Z,14.14
2022-08-23T03:01:16.217Z,14.15
2022-08-23T03:02:16.260Z,14.11
2022-08-23T03:03:16.240Z,14.22
2022-08-23T03:04:16.211Z,14.18
2022-08-23T03:05:16.207Z,14.15
2022-08-23T03:06:25.335Z,14.18
2022-08-23T03:07:16.168Z,14.29
2022-08-23T03:08:16.201Z,14.17
2022-08-23T03:09:16.164Z,14.26
2022-08-23T03:10:16.149Z,14.22
2022-08-23T03:11:16.150Z,14.15
2022-08-23T03:12:16.128Z,14.12
2022-08-23T03:13:16.154Z,14.10
2022-08-23T03:14:16.147Z,14.08
2022-08-23T03:15:16.106Z,14.07
2022-08-23T03:16:16.102Z,14.00
2022-08-23T03:17:16.099Z,13.99
2022-08-23T03:18:16.095Z,13.97
2022-08-23T03:19:16.105Z,14.04
2022-08-23T03:20:16.077Z,13.99
2022-08-23T03:21:16.065Z,13.96
2022-08-23T03:22:16.077Z,13.97
2022-08-23T03:23:16.045Z,13.87
2022-08-23T03:24:16.052Z,13.87
2022-08-23T03:25:16.057Z,13.87
2022-08-23T03:26:16.039Z,13.87
2022-08-23T03:27:16.029Z,13.92
2022-08-23T03:28:16.032Z,13.89
2022-08-23T03:29:16.057Z,13.95
2022-08-23T03:30:19.610Z,13.92
2022-08-23T03:31:16.005Z,13.90
2022-08-23T03:32:15.976Z,13.87
2022-08-23T03:33:15.981Z,13.83
2022-08-23T03:34:15.983Z,13.92
2022-08-23T03:35:15.947Z,13.87
2022-08-23T03:36:15.970Z,13.89
2022-08-23T03:37:15.949Z,13.90
2022-08-23T03:38:15.946Z,13.79
2022-08-23T03:39:15.924Z,13.92
2022-08-23T03:40:15.973Z,13.81
2022-08-23T03:41:15.930Z,13.87
2022-08-23T03:42:15.924Z,13.78
2022-08-23T03:43:15.951Z,13.87
2022-08-23T03:44:15.935Z,13.83
2022-08-23T03:45:15.888Z,13.79
2022-08-23T03:46:15.897Z,13.89
2022-08-23T03:47:15.893Z,13.83
2022-08-23T03:48:15.924Z,13.89
2022-08-23T03:49:15.894Z,13.86
2022-08-23T03:50:15.855Z,13.89
2022-08-23T03:51:15.869Z,13.79
2022-08-23T03:52:15.849Z,13.89
2022-08-23T03:53:15.845Z,13.83
2022-08-23T03:54:15.855Z,13.87
2022-08-23T03:55:15.874Z,13.85
2022-08-23T03:56:15.827Z,13.79
2022-08-23T03:57:15.847Z,13.75
2022-08-23T03:58:15.804Z,13.78
2022-08-23T03:59:15.868Z,13.72
2022-08-23T04:00:20.583Z,13.62
2022-08-23T04:01:15.814Z,13.67
2022-08-23T04:02:15.825Z,13.65
2022-08-23T04:03:15.776Z,13.62
2022-08-23T04:04:15.751Z,13.79
2022-08-23T04:05:15.738Z,13.60
2022-08-23T04:06:15.768Z,13.72
2022-08-23T04:07:15.759Z,13.72
2022-08-23T04:08:18.114Z,13.74
2022-08-23T04:09:15.759Z,13.81
2022-08-23T04:10:15.700Z,13.75
2022-08-23T04:11:15.706Z,13.72
2022-08-23T04:12:17.636Z,13.62
2022-08-23T04:13:15.681Z,13.67
2022-08-23T04:14:15.700Z,13.65
2022-08-23T04:15:15.684Z,13.57
2022-08-23T04:16:15.690Z,13.59
2022-08-23T04:17:15.688Z,13.67
2022-08-23T04:18:15.661Z,13.59
2022-08-23T04:19:15.631Z,13.67
2022-08-23T04:20:15.665Z,13.65
2022-08-23T04:21:15.656Z,13.60
2022-08-23T04:22:15.620Z,13.68
2022-08-23T04:23:15.638Z,13.68
2022-08-23T04:24:15.595Z,13.70
2022-08-23T04:25:33.995Z,13.65
2022-08-23T04:26:15.620Z,13.65
2022-08-23T04:27:15.590Z,13.62
2022-08-23T04:28:15.594Z,13.62
2022-08-23T04:29:31.458Z,13.59
2022-08-23T04:30:15.575Z,13.54
2022-08-23T04:31:15.569Z,13.57
2022-08-23T04:32:26.557Z,13.56
2022-08-23T04:33:18.019Z,13.53
2022-08-23T04:34:15.532Z,13.59
2022-08-23T04:35:15.549Z,13.62
2022-08-23T04:36:15.526Z,13.75
2022-08-23T04:37:15.513Z,13.89
2022-08-23T04:38:24.139Z,14.10
2022-08-23T04:39:15.500Z,14.17
2022-08-23T04:40:15.547Z,14.29
2022-08-23T04:41:15.489Z,14.48
2022-08-23T04:42:15.470Z,14.66
2022-08-23T04:43:15.663Z,14.70
2022-08-23T04:44:15.498Z,14.88
2022-08-23T04:45:15.498Z,14.97
2022-08-23T04:46:15.496Z,15.14
2022-08-23T04:47:15.521Z,15.37
2022-08-23T04:48:15.478Z,15.44
2022-08-23T04:49:15.472Z,15.58
2022-08-23T04:50:15.435Z,15.67
2022-08-23T04:51:15.443Z,15.68
2022-08-23T04:52:19.201Z,15.86
2022-08-23T04:53:15.418Z,15.86
2022-08-23T04:54:16.876Z,15.90
2022-08-23T04:55:15.407Z,15.86
2022-08-23T04:56:15.403Z,15.84
2022-08-23T04:57:15.380Z,15.79
2022-08-23T04:58:15.414Z,15.90
2022-08-23T04:59:17.989Z,15.92
2022-08-23T05:00:15.359Z,15.92
2022-08-23T05:01:15.407Z,15.94
2022-08-23T05:02:15.360Z,15.94
2022-08-23T05:03:15.373Z,16.05
2022-08-23T05:04:15.337Z,16.12
2022-08-23T05:05:15.335Z,16.15
2022-08-23T05:06:15.316Z,16.10
2022-08-23T05:07:15.439Z,16.09
2022-08-23T05:08:15.409Z,16.10
2022-08-23T05:09:19.977Z,16.04
2022-08-23T05:10:15.373Z,16.02
2022-08-23T05:11:15.300Z,16.01
2022-08-23T05:12:15.318Z,16.00
2022-08-23T05:13:15.381Z,15.98
2022-08-23T05:14:15.304Z,15.97
2022-08-23T05:15:15.275Z,15.88
2022-08-23T05:16:15.276Z,15.88
2022-08-23T05:17:15.369Z,15.84
2022-08-23T05:18:15.266Z,15.91
2022-08-23T05:19:15.254Z,15.88
2022-08-23T05:20:15.244Z,15.90
2022-08-23T05:21:15.252Z,15.94
2022-08-23T05:22:15.272Z,16.00
2022-08-23T05:23:15.244Z,15.98
2022-08-23T05:24:15.283Z,15.86
2022-08-23T05:25:15.223Z,15.88
2022-08-23T05:26:15.240Z,15.90
2022-08-23T05:27:15.191Z,16.01
2022-08-23T05:28:15.222Z,15.94
2022-08-23T05:29:15.183Z,15.90
2022-08-23T05:30:15.680Z,15.76
2022-08-23T05:31:15.199Z,15.80
2022-08-23T05:32:15.240Z,15.95
2022-08-23T05:33:15.142Z,16.02
2022-08-23T05:34:15.201Z,16.12
2022-08-23T05:35:15.148Z,16.00
2022-08-23T05:36:15.157Z,15.91
2022-08-23T05:37:15.236Z,15.95
2022-08-23T05:38:20.154Z,15.92
2022-08-23T05:39:15.115Z,15.98
2022-08-23T05:40:15.225Z,16.09
2022-08-23T05:41:15.131Z,16.13
2022-08-23T05:42:15.138Z,16.24
2022-08-23T05:43:15.144Z,16.12
2022-08-23T05:44:15.138Z,16.23
2022-08-23T05:45:19.392Z,16.24
2022-08-23T05:46:15.067Z,16.26
2022-08-23T05:47:15.604Z,16.23
2022-08-23T05:48:15.097Z,16.46
2022-08-23T05:49:15.488Z,16.51
2022-08-23T05:50:15.053Z,16.57
2022-08-23T05:51:15.049Z,16.68
2022-08-23T05:52:15.075Z,16.66
2022-08-23T05:53:15.081Z,16.66
2022-08-23T05:54:15.053Z,16.68
2022-08-23T05:55:15.102Z,16.76
2022-08-23T05:56:15.024Z,16.75
2022-08-23T05:57:15.007Z,16.78
2022-08-23T05:58:15.007Z,16.74
2022-08-23T05:59:15.023Z,16.74
2022-08-23T06:00:15.027Z,16.71
2022-08-23T06:01:15.097Z,16.64
2022-08-23T06:02:15.029Z,16.65
2022-08-23T06:03:15.009Z,16.71
2022-08-23T06:04:14.976Z,16.74
2022-08-23T06:05:14.982Z,16.79
2022-08-23T06:06:14.961Z,16.78
2022-08-23T06:07:15.004Z,16.86
2022-08-23T06:08:14.970Z,16.89
2022-08-23T06:09:14.973Z,16.99
2022-08-23T06:10:15.989Z,17.09
2022-08-23T06:11:14.931Z,17.09
2022-08-23T06:12:14.951Z,17.15
2022-08-23T06:13:14.957Z,17.29
2022-08-23T06:14:15.030Z,17.44
2022-08-23T06:15:15.036Z,17.27
2022-08-23T06:16:15.440Z,17.38
2022-08-23T06:17:14.921Z,17.38
2022-08-23T06:18:14.883Z,17.46
2022-08-23T06:19:15.035Z,17.34
2022-08-23T06:20:14.947Z,17.44
2022-08-23T06:21:14.887Z,17.56
2022-08-23T06:22:14.921Z,17.65
2022-08-23T06:23:15.173Z,17.57
2022-08-23T06:24:14.873Z,17.64
2022-08-23T06:25:14.865Z,17.67
2022-08-23T06:26:14.858Z,17.52
2022-08-23T06:27:14.860Z,17.49
2022-08-23T06:28:15.131Z,17.56
2022-08-23T06:29:14.904Z,17.70
2022-08-23T06:30:14.842Z,17.86
2022-08-23T06:31:14.991Z,18.03
2022-08-23T06:32:14.912Z,18.04
2022-08-23T06:33:14.871Z,18.15
2022-08-23T06:34:14.821Z,18.07
2022-08-23T06:35:38.343Z,18.22
2022-08-23T06:36:14.896Z,18.29
2022-08-23T06:37:14.793Z,18.40
2022-08-23T06:38:14.806Z,18.56
2022-08-23T06:39:14.766Z,18.66
2022-08-23T06:40:14.815Z,18.60
2022-08-23T06:41:14.762Z,18.66
2022-08-23T06:42:37.598Z,18.84
2022-08-23T06:43:14.773Z,18.88
2022-08-23T06:44:14.772Z,19.12
2022-08-23T06:45:14.761Z,19.22
2022-08-23T06:46:14.842Z,19.14
2022-08-23T06:47:14.747Z,18.95
2022-08-23T06:48:18.710Z,19.11
2022-08-23T06:49:14.732Z,19.15
2022-08-23T06:50:14.720Z,19.08
2022-08-23T06:51:14.748Z,19.31
2022-08-23T06:52:14.886Z,19.16
2022-08-23T06:53:14.721Z,19.24
2022-08-23T06:54:14.704Z,19.24
2022-08-23T06:55:14.750Z,19.37
2022-08-23T06:56:14.687Z,19.63
2022-08-23T06:57:14.689Z,19.62
2022-08-23T06:58:14.673Z,19.63
2022-08-23T06:59:14.698Z,19.62
2022-08-23T07:00:16.818Z,19.67
2022-08-23T07:01:35.146Z,19.73
2022-08-23T07:02:15.448Z,19.81
2022-08-23T07:03:14.679Z,19.94
2022-08-23T07:04:14.861Z,20.06
2022-08-23T07:05:14.661Z,20.11
2022-08-23T07:06:14.702Z,20.13
2022-08-23T07:07:14.937Z,20.31
2022-08-23T07:08:14.753Z,20.36
2022-08-23T07:09:14.635Z,20.32
2022-08-23T07:10:14.718Z,20.37
2022-08-23T07:11:15.686Z,20.37
2022-08-23T07:12:14.623Z,20.44
2022-08-23T07:13:18.369Z,20.59
2022-08-23T07:14:14.827Z,20.75
2022-08-23T07:15:15.047Z,20.93
2022-08-23T07:16:14.661Z,20.95
2022-08-23T07:17:14.602Z,21.18
2022-08-23T07:18:14.603Z,21.33
2022-08-23T07:19:14.601Z,21.18
2022-08-23T07:20:14.608Z,21.15
2022-08-23T07:21:14.630Z,21.11
2022-08-23T07:22:15.651Z,21.14
2022-08-23T07:23:14.573Z,21.22
2022-08-23T07:24:14.601Z,21.25
2022-08-23T07:25:14.607Z,21.17
2022-08-23T07:26:14.564Z,21.11
2022-08-23T07:27:14.572Z,21.02
2022-08-23T07:28:14.858Z,21.00
2022-08-23T07:29:14.564Z,21.06
2022-08-23T07:30:14.651Z,21.17
2022-08-23T07:31:14.971Z,21.22
2022-08-23T07:32:14.586Z,21.40
2022-08-23T07:33:14.886Z,21.52
2022-08-23T07:34:15.507Z,21.51
2022-08-23T07:35:14.620Z,21.58
2022-08-23T07:36:14.529Z,21.95
2022-08-23T07:37:15.402Z,22.22
2022-08-23T07:38:14.879Z,22.50
2022-08-23T07:39:14.533Z,22.81
2022-08-23T07:40:20.673Z,22.70
2022-08-23T07:41:14.554Z,22.57
2022-08-23T07:42:22.723Z,22.51
2022-08-23T07:43:15.100Z,22.60
2022-08-23T07:44:18.294Z,22.84
2022-08-23T07:45:14.529Z,22.85
2022-08-23T07:46:15.028Z,22.72
2022-08-23T07:47:14.549Z,22.63
2022-08-23T07:48:20.447Z,22.53
2022-08-23T07:49:14.518Z,22.53
2022-08-23T07:50:14.473Z,22.32
2022-08-23T07:51:14.475Z,22.11
2022-08-23T07:52:14.508Z,22.17
2022-08-23T07:53:14.478Z,22.36
2022-08-23T07:54:14.470Z,22.66
2022-08-23T07:55:14.475Z,22.96
2022-08-23T07:56:14.466Z,23.21
2022-08-23T07:57:14.456Z,23.09
2022-08-23T07:58:14.454Z,23.20
2022-08-23T07:59:14.725Z,23.21
2022-08-23T08:00:14.610Z,23.39
2022-08-23T08:01:14.440Z,23.10
2022-08-23T08:02:14.522Z,23.06
2022-08-23T08:03:14.520Z,23.20
2022-08-23T08:04:14.580Z,23.37
2022-08-23T08:05:17.298Z,23.62
2022-08-23T08:06:14.713Z,23.47
2022-08-23T08:07:21.741Z,23.20
2022-08-23T08:08:14.477Z,23.12
2022-08-23T08:09:14.436Z,22.93
2022-08-23T08:10:14.432Z,22.99
2022-08-23T08:11:14.444Z,23.18
2022-08-23T08:12:14.456Z,23.41
2022-08-23T08:13:14.419Z,23.51
2022-08-23T08:14:14.461Z,23.68
2022-08-23T08:15:14.434Z,23.95
2022-08-23T08:16:14.472Z,24.39
2022-08-23T08:17:14.421Z,24.58
2022-08-23T08:18:14.422Z,24.86
2022-08-23T08:19:15.017Z,24.51
2022-08-23T08:20:14.470Z,24.21
2022-08-23T08:21:14.432Z,23.95
2022-08-23T08:22:14.445Z,23.80
2022-08-23T08:23:14.556Z,23.59
2022-08-23T08:24:14.439Z,23.51
2022-08-23T08:25:14.433Z,23.66
2022-08-23T08:26:14.439Z,24.03
2022-08-23T08:27:14.951Z,24.33
2022-08-23T08:28:16.054Z,24.80
2022-08-23T08:29:15.013Z,25.17
2022-08-23T08:30:14.430Z,25.48
2022-08-23T08:31:14.801Z,25.65
2022-08-23T08:33:14.553Z,25.54
2022-08-23T08:34:14.434Z,25.28
2022-08-23T08:35:14.451Z,24.96
2022-08-23T08:36:14.456Z,24.95
2022-08-23T08:37:14.553Z,24.60
2022-08-23T08:38:14.451Z,24.61
2022-08-23T08:39:14.498Z,24.69
2022-08-23T08:40:14.524Z,25.08
2022-08-23T08:41:14.481Z,25.50
2022-08-23T08:42:14.667Z,25.62
2022-08-23T08:43:14.449Z,25.54
2022-08-23T08:44:16.282Z,25.14
2022-08-23T08:45:14.469Z,24.57
2022-08-23T08:46:14.529Z,24.57
2022-08-23T08:47:14.471Z,24.33
2022-08-23T08:48:14.472Z,24.02
2022-08-23T08:49:14.458Z,24.11
2022-08-23T08:50:14.455Z,24.42
2022-08-23T08:51:14.481Z,24.63
2022-08-23T08:52:14.458Z,24.70
2022-08-23T08:53:14.455Z,25.07
2022-08-23T08:54:14.466Z,25.06
2022-08-23T08:55:14.457Z,25.18
2022-08-23T08:56:14.442Z,25.26
2022-08-23T08:57:14.454Z,25.23
2022-08-23T08:58:14.434Z,25.41
2022-08-23T08:59:14.433Z,25.60
2022-08-23T09:00:14.423Z,25.60
2022-08-23T09:01:14.688Z,26.06
2022-08-23T09:02:31.897Z,26.56
2022-08-23T09:03:14.580Z,26.48
2022-08-23T09:04:14.443Z,26.09
2022-08-23T09:05:14.482Z,25.73
2022-08-23T09:06:14.559Z,25.23
2022-08-23T09:07:14.471Z,25.13
2022-08-23T09:08:14.447Z,25.54
2022-08-23T09:09:14.437Z,26.05
2022-08-23T09:10:14.419Z,26.34
2022-08-23T09:11:14.442Z,26.59
2022-08-23T09:12:16.074Z,26.37
2022-08-23T09:13:14.438Z,25.66
2022-08-23T09:14:14.430Z,25.35
2022-08-23T09:15:14.453Z,25.21
2022-08-23T09:16:14.513Z,25.38
2022-08-23T09:17:14.444Z,25.72
2022-08-23T09:18:14.418Z,26.15
2022-08-23T09:19:14.412Z,26.44
2022-08-23T09:20:14.653Z,25.98
2022-08-23T09:21:14.421Z,25.73
2022-08-23T09:22:14.496Z,25.65
2022-08-23T09:23:14.649Z,26.10
2022-08-23T09:24:14.420Z,26.31
2022-08-23T09:25:14.453Z,26.70
2022-08-23T09:26:14.399Z,26.99
2022-08-23T09:27:14.475Z,27.17
2022-08-23T09:28:14.405Z,26.88
2022-08-23T09:29:14.438Z,26.02
2022-08-23T09:30:14.429Z,25.46
2022-08-23T09:31:14.449Z,25.62
2022-08-23T09:32:14.469Z,25.62
2022-08-23T09:33:14.388Z,25.78
2022-08-23T09:34:14.391Z,25.43
2022-08-23T09:35:14.407Z,25.26
2022-08-23T09:36:14.382Z,25.28
2022-08-23T09:37:14.387Z,24.93
2022-08-23T09:38:14.397Z,24.91
2022-08-23T09:39:14.566Z,25.07
2022-08-23T09:40:14.599Z,25.14
2022-08-23T09:41:14.418Z,25.17
2022-08-23T09:42:14.408Z,25.31
2022-08-23T09:43:14.376Z,25.35
2022-08-23T09:44:14.385Z,25.03
2022-08-23T09:45:14.393Z,24.88
2022-08-23T09:46:14.432Z,24.91
2022-08-23T09:47:14.389Z,25.23
2022-08-23T09:48:14.391Z,25.44
2022-08-23T09:49:14.449Z,25.78
2022-08-23T09:50:14.361Z,25.96
2022-08-23T09:51:14.381Z,26.23
2022-08-23T09:52:20.274Z,26.52
2022-08-23T09:53:14.551Z,26.88
2022-08-23T09:54:14.490Z,27.08
2022-08-23T09:55:14.402Z,27.10
2022-08-23T09:56:14.383Z,27.10
2022-08-23T09:57:14.380Z,27.05
2022-08-23T09:58:14.384Z,27.12
2022-08-23T09:59:14.411Z,26.52
2022-08-23T10:00:14.352Z,26.03
2022-08-23T10:01:14.460Z,25.65
2022-08-23T10:02:14.417Z,25.69
2022-08-23T10:03:14.593Z,25.23
2022-08-23T10:04:14.470Z,25.53
2022-08-23T10:05:14.887Z,25.98
2022-08-23T10:06:14.381Z,26.41
2022-08-23T10:07:14.378Z,26.60
2022-08-23T10:08:14.925Z,26.78
2022-08-23T10:09:14.361Z,26.85
2022-08-23T10:10:14.372Z,26.71
2022-08-23T10:11:14.392Z,26.97
2022-08-23T10:12:14.494Z,27.14
2022-08-23T10:13:14.368Z,27.39
2022-08-23T10:14:14.369Z,27.25
2022-08-23T10:15:14.362Z,26.97
2022-08-23T10:16:14.437Z,26.44
2022-08-23T10:17:14.385Z,26.33
2022-08-23T10:18:14.379Z,26.48
2022-08-23T10:19:14.380Z,26.75
2022-08-23T10:20:14.475Z,27.07
2022-08-23T10:21:18.903Z,27.47
2022-08-23T10:22:14.337Z,27.20
2022-08-23T10:23:14.374Z,26.81
2022-08-23T10:24:14.372Z,26.43
2022-08-23T10:25:14.384Z,26.18
2022-08-23T10:26:14.322Z,25.99
2022-08-23T10:27:14.344Z,25.98
2022-08-23T10:28:14.379Z,26.22
2022-08-23T10:29:14.374Z,26.37
2022-08-23T10:30:14.364Z,26.23
2022-08-23T10:31:14.407Z,26.13
2022-08-23T10:32:14.317Z,26.51
2022-08-23T10:33:18.744Z,26.65
2022-08-23T10:34:14.350Z,27.11
2022-08-23T10:35:14.332Z,27.40
2022-08-23T10:36:14.526Z,27.51
2022-08-23T10:37:14.343Z,27.51
2022-08-23T10:38:14.334Z,27.18
2022-08-23T10:39:14.318Z,26.96
2022-08-23T10:40:14.506Z,26.80
2022-08-23T10:41:14.340Z,26.51
2022-08-23T10:42:14.324Z,26.06
2022-08-23T10:43:14.348Z,26.16
2022-08-23T10:44:14.349Z,25.87
2022-08-23T10:45:14.337Z,25.65
2022-08-23T10:46:14.373Z,25.60
2022-08-23T10:47:14.327Z,25.80
2022-08-23T10:48:14.364Z,26.26
2022-08-23T10:49:14.349Z,26.45
2022-08-23T10:50:14.558Z,26.58
2022-08-23T10:51:14.372Z,26.62
2022-08-23T10:52:14.311Z,26.63
2022-08-23T10:53:14.340Z,26.40
2022-08-23T10:54:14.296Z,26.45
2022-08-23T10:55:14.329Z,26.51
2022-08-23T10:56:14.771Z,26.53
2022-08-23T10:57:14.331Z,26.85
2022-08-23T10:58:14.324Z,26.97
2022-08-23T10:59:14.331Z,27.05
2022-08-23T11:00:14.290Z,27.25
2022-08-23T11:01:14.770Z,27.33
2022-08-23T11:02:14.613Z,27.03
2022-08-23T11:03:14.524Z,26.84
2022-08-23T11:04:14.306Z,26.75
2022-08-23T11:05:14.325Z,26.88
2022-08-23T11:06:14.318Z,26.96
2022-08-23T11:07:14.506Z,27.00
2022-08-23T11:08:14.289Z,27.02
2022-08-23T11:09:14.345Z,27.03
2022-08-23T11:10:16.671Z,27.03
2022-08-23T11:11:14.308Z,27.27
2022-08-23T11:12:14.360Z,27.14
2022-08-23T11:13:14.322Z,27.03
2022-08-23T11:14:14.264Z,27.25
2022-08-23T11:15:14.270Z,27.29
2022-08-23T11:16:14.353Z,27.39
2022-08-23T11:17:14.334Z,27.21
2022-08-23T11:18:14.296Z,26.93
2022-08-23T11:19:14.272Z,26.80
2022-08-23T11:20:14.494Z,26.63
2022-08-23T11:21:14.320Z,26.40
2022-08-23T11:22:14.674Z,26.53
2022-08-23T11:23:14.280Z,26.68
2022-08-23T11:24:14.483Z,26.62
2022-08-23T11:25:14.273Z,26.90
2022-08-23T11:26:14.463Z,27.18
2022-08-23T11:27:14.358Z,27.44
2022-08-23T11:28:14.480Z,27.73
2022-08-23T11:29:14.292Z,27.54
2022-08-23T11:30:14.309Z,27.63
2022-08-23T11:31:14.354Z,27.92
2022-08-23T11:32:14.305Z,28.17
2022-08-23T11:33:14.588Z,28.30
2022-08-23T11:34:14.246Z,28.42
2022-08-23T11:35:14.281Z,28.54
2022-08-23T11:36:14.242Z,28.57
2022-08-23T11:37:14.257Z,28.44
2022-08-23T11:38:14.330Z,28.19
2022-08-23T11:39:19.542Z,27.80
2022-08-23T11:40:18.126Z,27.48
2022-08-23T11:41:14.239Z,27.25
2022-08-23T11:42:14.249Z,27.33
2022-08-23T11:43:14.303Z,27.27
2022-08-23T11:44:14.250Z,27.20
2022-08-23T11:45:14.458Z,27.03
2022-08-23T11:46:14.520Z,27.08
2022-08-23T11:47:14.259Z,27.11
2022-08-23T11:48:14.239Z,27.11
2022-08-23T11:49:14.235Z,27.07
2022-08-23T11:50:14.245Z,27.02
2022-08-23T11:51:14.253Z,27.22
2022-08-23T11:52:14.623Z,27.48
2022-08-23T11:53:15.297Z,27.47
2022-08-23T11:54:14.310Z,27.52
2022-08-23T11:55:14.471Z,27.49
2022-08-23T11:56:14.275Z,27.58
2022-08-23T11:57:14.267Z,27.75
2022-08-23T11:58:14.239Z,27.93
2022-08-23T11:59:14.242Z,27.89
2022-08-23T12:00:14.292Z,27.77
2022-08-23T12:01:14.252Z,27.59
2022-08-23T12:02:16.111Z,27.48
2022-08-23T12:03:14.686Z,27.37
2022-08-23T12:04:14.241Z,27.30
2022-08-23T12:05:14.267Z,27.08
2022-08-23T12:06:14.235Z,27.00
2022-08-23T12:07:14.229Z,26.93
2022-08-23T12:08:14.283Z,26.85
2022-08-23T12:09:14.279Z,26.88
2022-08-23T12:10:14.228Z,26.62
2022-08-23T12:11:14.232Z,26.48
2022-08-23T12:12:14.261Z,26.56
2022-08-23T12:13:14.288Z,26.63
2022-08-23T12:14:18.284Z,26.59
2022-08-23T12:15:17.037Z,26.60
2022-08-23T12:16:18.717Z,26.74
2022-08-23T12:17:18.208Z,26.88
2022-08-23T12:18:23.957Z,26.88
2022-08-23T12:19:14.212Z,26.97
2022-08-23T12:20:16.361Z,27.25
2022-08-23T12:21:14.210Z,27.44
2022-08-23T12:22:14.231Z,27.35
2022-08-23T12:23:14.218Z,27.29
2022-08-23T12:24:14.209Z,27.32
2022-08-23T12:25:14.208Z,27.39
2022-08-23T12:26:14.205Z,27.49
2022-08-23T12:27:14.201Z,27.42
2022-08-23T12:28:14.207Z,27.33
2022-08-23T12:29:14.206Z,27.15
2022-08-23T12:30:14.238Z,27.10
2022-08-23T12:31:14.356Z,26.84
2022-08-23T12:32:14.237Z,26.92
2022-08-23T12:33:14.252Z,26.48
2022-08-23T12:34:14.188Z,26.45
2022-08-23T12:35:14.241Z,26.52
2022-08-23T12:36:16.495Z,26.60
2022-08-23T12:37:14.203Z,26.66
2022-08-23T12:38:14.212Z,26.65
2022-08-23T12:39:14.189Z,26.37
2022-08-23T12:40:14.217Z,26.41
2022-08-23T12:41:14.207Z,26.47
2022-08-23T12:42:14.195Z,26.68
2022-08-23T12:43:17.510Z,26.77
2022-08-23T12:44:14.180Z,26.80
2022-08-23T12:45:14.259Z,26.73
2022-08-23T12:46:14.285Z,26.95
2022-08-23T12:47:14.192Z,27.00
2022-08-23T12:48:14.208Z,27.18
2022-08-23T12:49:15.110Z,27.33
2022-08-23T12:50:15.151Z,27.39
2022-08-23T12:51:14.196Z,27.17
2022-08-23T12:52:14.189Z,27.39
2022-08-23T12:53:14.193Z,27.48
2022-08-23T12:54:14.378Z,27.77
2022-08-23T12:55:14.202Z,27.96
2022-08-23T12:56:14.168Z,28.05